createdAt,value
2022-12-18T00:00:59.233Z,48.20
2022-12-18T00:04:24.408Z,48.26
2022-12-18T00:07:29.132Z,47.98
2022-12-18T00:10:32.165Z,47.74
2022-12-18T00:13:35.668Z,47.77
2022-12-18T00:16:39.762Z,47.74
2022-12-18T00:19:42.090Z,47.75
2022-12-18T00:22:44.815Z,47.89
2022-12-18T00:25:47.316Z,48.02
2022-12-18T00:28:50.536Z,48.02
2022-12-18T00:31:54.882Z,48.02
2022-12-18T00:34:57.446Z,47.98
2022-12-18T00:38:00.402Z,47.97
2022-12-18T00:41:02.945Z,48.05
2022-12-18T00:44:05.851Z,48.04
2022-12-18T00:47:08.176Z,47.97
2022-12-18T00:50:10.683Z,48.01
2022-12-18T00:53:13.484Z,47.98
2022-12-18T00:56:15.706Z,47.98
2022-12-18T00:59:19.911Z,47.90
2022-12-18T01:02:22.273Z,47.91
2022-12-18T01:05:27.350Z,47.89
2022-12-18T01:08:29.400Z,48.02
2022-12-18T01:11:32.154Z,48.00
2022-12-18T01:14:34.586Z,47.96
2022-12-18T01:17:36.835Z,48.01
2022-12-18T01:20:39.410Z,48.04
2022-12-18T01:23:42.537Z,48.03
2022-12-18T01:26:45.119Z,47.97
2022-12-18T01:29:47.843Z,47.98
2022-12-18T01:32:50.545Z,48.07
2022-12-18T01:35:53.804Z,48.21
2022-12-18T01:39:00.190Z,48.24
2022-12-18T01:42:24.860Z,48.36
2022-12-18T01:45:33.439Z,48.35
2022-12-18T01:48:36.411Z,48.36
2022-12-18T01:51:39.961Z,48.53
2022-12-18T01:54:42.506Z,48.62
2022-12-18T01:57:45.598Z,48.73
2022-12-18T02:00:48.133Z,48.74
2022-12-18T02:03:52.569Z,48.85
2022-12-18T02:07:31.274Z,48.92
2022-12-18T02:10:44.582Z,49.00
2022-12-18T02:14:18.981Z,49.09
2022-12-18T02:17:24.395Z,49.03
2022-12-18T02:21:07.321Z,49.05
2022-12-18T02:24:52.431Z,48.99
2022-12-18T02:27:57.698Z,49.12
2022-12-18T02:31:03.949Z,49.16
2022-12-18T02:34:10.569Z,49.20
2022-12-18T02:37:18.801Z,49.19
2022-12-18T02:40:24.659Z,49.06
2022-12-18T02:43:28.449Z,49.02
2022-12-18T02:46:45.036Z,48.92
2022-12-18T02:49:59.376Z,48.85
2022-12-18T02:53:20.643Z,48.76
2022-12-18T02:56:34.522Z,48.79
2022-12-18T02:59:47.879Z,48.74
2022-12-18T03:03:25.541Z,48.79
2022-12-18T03:06:36.802Z,48.85
2022-12-18T03:09:43.666Z,49.03
2022-12-18T03:12:57.465Z,49.14
2022-12-18T03:16:02.081Z,49.13
2022-12-18T03:19:10.530Z,49.06
2022-12-18T03:22:14.637Z,49.16
2022-12-18T03:25:23.549Z,49.19
2022-12-18T03:28:33.247Z,49.11
2022-12-18T03:31:44.579Z,49.02
2022-12-18T03:34:49.662Z,49.04
2022-12-18T03:37:55.045Z,49.16
2022-12-18T03:41:02.462Z,49.06
2022-12-18T03:44:37.195Z,49.15
2022-12-18T03:47:59.904Z,49.22
2022-12-18T03:51:27.490Z,49.20
2022-12-18T03:54:32.602Z,49.28
2022-12-18T03:57:44.639Z,49.26
2022-12-18T04:00:49.134Z,49.34
2022-12-18T04:03:53.955Z,49.37
2022-12-18T04:06:57.358Z,49.44
2022-12-18T04:10:02.388Z,49.47
2022-12-18T04:13:07.170Z,49.44
2022-12-18T04:16:11.926Z,49.44
2022-12-18T04:19:16.917Z,49.43
2022-12-18T04:22:22.598Z,49.44
2022-12-18T04:25:30.492Z,49.40
2022-12-18T04:28:42.414Z,49.37
2022-12-18T04:31:45.433Z,49.47
2022-12-18T04:34:48.651Z,49.48
2022-12-18T04:37:51.036Z,49.51
2022-12-18T04:40:54.027Z,49.41
2022-12-18T04:44:02.266Z,49.37
2022-12-18T04:47:05.270Z,49.51
2022-12-18T04:50:07.942Z,49.49
2022-12-18T04:53:10.222Z,49.46
2022-12-18T04:56:17.107Z,49.45
2022-12-18T04:59:20.092Z,49.58
2022-12-18T05:02:22.070Z,49.62
2022-12-18T05:05:24.773Z,49.65
2022-12-18T05:08:27.658Z,49.66
2022-12-18T05:11:30.216Z,49.79
2022-12-18T05:14:32.194Z,49.74
2022-12-18T05:17:35.139Z,49.67
2022-12-18T05:20:38.755Z,49.79
2022-12-18T05:23:42.671Z,49.79
2022-12-18T05:26:46.616Z,49.78
2022-12-18T05:29:48.892Z,49.95
2022-12-18T05:32:51.293Z,49.88
2022-12-18T05:35:57.391Z,49.97
2022-12-18T05:38:59.492Z,49.92
2022-12-18T05:42:02.243Z,50.05
2022-12-18T05:45:05.348Z,50.09
2022-12-18T05:48:08.931Z,50.05
2022-12-18T05:51:14.236Z,49.84
2022-12-18T05:54:17.790Z,49.43
2022-12-18T05:57:21.860Z,49.30
2022-12-18T06:00:24.033Z,49.20
2022-12-18T06:03:32.219Z,49.16
2022-12-18T06:06:36.126Z,49.22
2022-12-18T06:09:38.071Z,49.25
2022-12-18T06:12:40.984Z,49.22
2022-12-18T06:15:44.337Z,49.29
2022-12-18T06:18:47.455Z,49.41
2022-12-18T06:21:50.657Z,49.35
2022-12-18T06:24:52.879Z,49.46
2022-12-18T06:27:54.999Z,49.54
2022-12-18T06:30:57.544Z,49.53
2022-12-18T06:34:00.334Z,49.62
2022-12-18T06:37:03.709Z,49.67
2022-12-18T06:40:06.593Z,49.54
2022-12-18T06:43:10.423Z,49.55
2022-12-18T06:46:13.704Z,49.61
2022-12-18T06:49:17.253Z,49.68
2022-12-18T06:52:19.820Z,49.72
2022-12-18T06:55:23.181Z,49.72
2022-12-18T06:58:25.304Z,49.62
2022-12-18T07:01:28.571Z,49.53
2022-12-18T07:04:31.772Z,49.60
2022-12-18T07:07:36.079Z,49.39
2022-12-18T07:10:48.210Z,49.36
2022-12-18T07:13:54.326Z,49.32
2022-12-18T07:16:56.319Z,49.30
2022-12-18T07:19:59.127Z,49.39
2022-12-18T07:23:06.871Z,49.41
2022-12-18T07:26:12.676Z,49.52
2022-12-18T07:29:14.623Z,49.50
2022-12-18T07:32:17.661Z,49.57
2022-12-18T07:35:24.774Z,49.60
2022-12-18T07:38:28.385Z,49.57
2022-12-18T07:41:30.462Z,49.46
2022-12-18T07:44:40.286Z,49.35
2022-12-18T07:47:42.697Z,49.28
2022-12-18T07:50:46.337Z,49.12
2022-12-18T07:53:52.011Z,49.05
2022-12-18T07:56:55.000Z,49.58
2022-12-18T07:59:56.889Z,49.18
2022-12-18T08:03:02.924Z,49.06
2022-12-18T08:06:07.744Z,48.99
2022-12-18T08:09:11.720Z,49.00
2022-12-18T08:12:13.643Z,49.45
2022-12-18T08:15:16.019Z,49.80
2022-12-18T08:18:18.206Z,50.02
2022-12-18T08:21:24.187Z,50.25
2022-12-18T08:24:27.151Z,50.23
2022-12-18T08:27:30.684Z,50.19
2022-12-18T08:30:33.316Z,50.05
2022-12-18T08:33:38.605Z,50.06
2022-12-18T08:36:41.348Z,49.89
2022-12-18T08:39:45.037Z,49.59
2022-12-18T08:43:06.855Z,49.52
2022-12-18T08:46:10.320Z,49.53
2022-12-18T08:49:13.552Z,49.69
2022-12-18T08:52:16.199Z,49.94
2022-12-18T08:55:19.285Z,49.71
2022-12-18T08:58:22.868Z,49.55
2022-12-18T09:01:25.568Z,49.60
2022-12-18T09:04:28.168Z,49.44
2022-12-18T09:07:30.521Z,49.26
2022-12-18T09:10:33.343Z,49.24
2022-12-18T09:13:35.270Z,49.17
2022-12-18T09:16:37.730Z,48.97
2022-12-18T09:19:40.766Z,49.02
2022-12-18T09:22:45.299Z,49.21
2022-12-18T09:25:48.669Z,49.42
2022-12-18T09:28:51.926Z,49.19
2022-12-18T09:31:54.881Z,48.84
2022-12-18T09:34:58.095Z,48.36
2022-12-18T09:38:00.288Z,48.53
2022-12-18T09:41:35.404Z,48.45
2022-12-18T09:44:45.378Z,48.15
2022-12-18T09:47:51.604Z,48.08
2022-12-18T09:50:59.792Z,48.10
2022-12-18T09:54:07.388Z,47.97
2022-12-18T09:57:18.483Z,47.75
2022-12-18T10:00:26.291Z,47.71
2022-12-18T10:03:28.872Z,47.91
2022-12-18T10:06:57.537Z,47.91
2022-12-18T10:10:21.613Z,47.59
2022-12-18T10:13:24.266Z,47.48
2022-12-18T10:17:03.116Z,47.26
2022-12-18T10:20:38.816Z,47.14
2022-12-18T10:24:03.270Z,47.20
2022-12-18T10:27:23.032Z,47.13
2022-12-18T10:30:26.908Z,47.04
2022-12-18T10:33:32.483Z,46.95
2022-12-18T10:36:35.081Z,46.99
2022-12-18T10:39:38.729Z,46.53
2022-12-18T10:42:43.325Z,46.96
2022-12-18T10:46:03.130Z,47.31
2022-12-18T10:49:06.674Z,47.42
2022-12-18T10:52:26.919Z,47.53
2022-12-18T10:55:35.171Z,47.59
2022-12-18T10:58:40.011Z,47.79
2022-12-18T11:01:59.790Z,47.53
2022-12-18T11:05:03.731Z,47.36
2022-12-18T11:08:05.795Z,47.25
2022-12-18T11:11:22.661Z,47.14
2022-12-18T11:14:35.345Z,47.43
2022-12-18T11:17:38.241Z,47.46
2022-12-18T11:20:40.548Z,47.38
2022-12-18T11:23:54.602Z,47.94
2022-12-18T11:27:01.898Z,47.49
2022-12-18T11:30:22.550Z,47.50
2022-12-18T11:33:25.016Z,47.54
2022-12-18T11:36:34.488Z,51.53
2022-12-18T11:39:47.256Z,48.85
2022-12-18T11:42:57.556Z,49.25
2022-12-18T11:46:17.677Z,49.03
2022-12-18T11:49:28.101Z,48.86
2022-12-18T11:52:41.039Z,48.73
2022-12-18T11:55:56.066Z,48.62
2022-12-18T11:59:27.381Z,48.31
2022-12-18T12:02:49.839Z,48.23
2022-12-18T12:05:55.382Z,48.09
2022-12-18T12:09:10.763Z,47.57
2022-12-18T12:12:49.295Z,47.34
2022-12-18T12:16:30.208Z,47.85
2022-12-18T12:20:00.201Z,47.70
2022-12-18T12:23:16.341Z,47.86
2022-12-18T12:26:36.858Z,47.94
2022-12-18T12:29:58.214Z,47.97
2022-12-18T12:33:09.488Z,47.87
2022-12-18T12:36:30.618Z,47.78
2022-12-18T12:39:38.419Z,47.75
2022-12-18T12:43:06.414Z,47.76
2022-12-18T12:46:15.760Z,47.74
2022-12-18T12:49:24.039Z,47.77
2022-12-18T12:52:36.867Z,47.82
2022-12-18T12:55:42.141Z,47.68
2022-12-18T12:59:08.232Z,47.60
2022-12-18T13:02:43.999Z,47.49
2022-12-18T13:06:01.317Z,47.42
2022-12-18T13:09:06.334Z,47.43
2022-12-18T13:12:33.306Z,47.41
2022-12-18T13:15:49.537Z,47.38
2022-12-18T13:19:00.041Z,47.16
2022-12-18T13:22:03.256Z,47.14
2022-12-18T13:25:33.268Z,46.96
2022-12-18T13:28:48.531Z,46.90
2022-12-18T13:31:51.810Z,46.94
2022-12-18T13:35:19.725Z,47.02
2022-12-18T13:38:38.168Z,46.78
2022-12-18T13:41:42.799Z,46.46
2022-12-18T13:44:45.584Z,45.94
2022-12-18T13:47:49.199Z,46.00
2022-12-18T13:51:02.317Z,45.69
2022-12-18T13:54:19.039Z,45.44
2022-12-18T13:57:33.675Z,45.33
2022-12-18T14:00:37.038Z,45.21
2022-12-18T14:03:39.309Z,45.17
2022-12-18T14:06:44.195Z,44.85
2022-12-18T14:10:01.907Z,44.75
2022-12-18T14:13:12.286Z,44.55
2022-12-18T14:16:18.144Z,44.15
2022-12-18T14:19:23.095Z,44.14
2022-12-18T14:22:30.549Z,44.10
2022-12-18T14:25:33.104Z,43.23
2022-12-18T14:28:46.724Z,43.23
2022-12-18T14:32:09.400Z,43.14
2022-12-18T14:35:15.197Z,43.00
2022-12-18T14:38:17.765Z,43.09
2022-12-18T14:41:20.907Z,43.06
2022-12-18T14:44:24.154Z,42.89
2022-12-18T14:47:26.686Z,42.90
2022-12-18T14:50:29.357Z,42.78
2022-12-18T14:53:36.320Z,42.79
2022-12-18T14:56:46.770Z,42.66
2022-12-18T14:59:49.139Z,42.55
2022-12-18T15:02:57.873Z,42.58
2022-12-18T15:06:19.104Z,42.66
2022-12-18T15:09:28.309Z,42.59
2022-12-18T15:12:39.194Z,42.83
2022-12-18T15:15:47.070Z,42.96
2022-12-18T15:18:53.299Z,43.23
2022-12-18T15:22:02.852Z,43.31
2022-12-18T15:25:33.707Z,43.34
2022-12-18T15:28:46.898Z,43.35
2022-12-18T15:32:07.949Z,43.30
2022-12-18T15:35:13.708Z,43.35
2022-12-18T15:38:20.983Z,43.52
2022-12-18T15:41:28.966Z,43.74
2022-12-18T15:44:36.893Z,43.69
2022-12-18T15:47:45.148Z,43.58
2022-12-18T15:50:49.306Z,43.29
2022-12-18T15:53:57.914Z,43.24
2022-12-18T15:57:19.059Z,43.14
2022-12-18T16:00:21.621Z,43.05
2022-12-18T16:03:23.734Z,43.02
2022-12-18T16:06:36.376Z,43.03
2022-12-18T16:09:49.201Z,43.03
2022-12-18T16:12:52.472Z,43.16
2022-12-18T16:15:55.476Z,42.98
2022-12-18T16:19:00.967Z,43.21
2022-12-18T16:22:08.341Z,43.17
2022-12-18T16:25:27.158Z,43.18
2022-12-18T16:28:34.168Z,43.39
2022-12-18T16:32:03.810Z,43.54
2022-12-18T16:35:07.677Z,43.90
2022-12-18T16:38:51.508Z,44.18
2022-12-18T16:41:55.507Z,44.16
2022-12-18T16:45:43.640Z,44.36
2022-12-18T16:48:57.598Z,44.54
2022-12-18T16:52:19.268Z,44.60
2022-12-18T16:55:57.223Z,44.66
2022-12-18T17:03:32.677Z,44.82
2022-12-18T17:07:04.812Z,44.96
2022-12-18T17:10:12.234Z,44.80
2022-12-18T17:13:25.784Z,44.61
2022-12-18T17:16:40.916Z,44.81
2022-12-18T17:23:35.337Z,44.90
2022-12-18T17:26:43.486Z,45.06
2022-12-18T17:29:55.865Z,45.21
2022-12-18T17:33:04.588Z,45.50
2022-12-18T17:36:12.293Z,45.72
2022-12-18T17:39:23.748Z,45.43
2022-12-18T17:42:35.163Z,45.20
2022-12-18T17:45:44.262Z,45.01
2022-12-18T17:48:53.449Z,45.24
2022-12-18T17:52:01.961Z,45.26
2022-12-18T17:55:12.327Z,45.34
2022-12-18T17:58:17.994Z,45.63
2022-12-18T18:01:25.765Z,45.68
2022-12-18T18:04:28.582Z,45.75
2022-12-18T18:07:31.090Z,45.91
2022-12-18T18:10:37.453Z,46.03
2022-12-18T18:13:58.466Z,46.10
2022-12-18T18:17:04.659Z,46.10
2022-12-18T18:20:08.688Z,46.09
2022-12-18T18:23:11.942Z,46.04
2022-12-18T18:26:15.994Z,46.07
2022-12-18T18:29:26.065Z,46.06
2022-12-18T18:32:29.506Z,46.02
2022-12-18T18:35:53.460Z,45.95
2022-12-18T18:38:55.394Z,46.11
2022-12-18T18:41:57.814Z,46.10
2022-12-18T18:45:00.472Z,46.20
2022-12-18T18:48:02.603Z,46.16
2022-12-18T18:51:08.656Z,46.17
2022-12-18T18:54:11.569Z,46.18
2022-12-18T18:57:24.212Z,46.15
2022-12-18T19:00:29.148Z,46.07
2022-12-18T19:03:32.565Z,45.96
2022-12-18T19:06:34.995Z,45.99
2022-12-18T19:09:39.243Z,46.05
2022-12-18T19:13:00.454Z,46.09
2022-12-18T19:16:06.422Z,46.11
2022-12-18T19:19:09.201Z,46.05
2022-12-18T19:22:12.795Z,45.99
2022-12-18T19:25:16.276Z,45.84
2022-12-18T19:28:22.577Z,45.80
2022-12-18T19:31:29.193Z,45.77
2022-12-18T19:34:35.759Z,45.71
2022-12-18T19:37:39.276Z,45.74
2022-12-18T19:40:45.061Z,45.69
2022-12-18T19:43:49.211Z,45.56
2022-12-18T19:46:52.491Z,45.48
2022-12-18T19:49:54.874Z,45.56
2022-12-18T19:52:58.063Z,45.48
2022-12-18T19:56:10.053Z,45.54
2022-12-18T19:59:14.826Z,45.53
2022-12-18T20:02:17.696Z,45.58
2022-12-18T20:05:25.218Z,45.73
2022-12-18T20:08:27.877Z,46.04
2022-12-18T20:11:40.955Z,45.88
2022-12-18T20:14:44.206Z,45.72
2022-12-18T20:17:48.876Z,45.71
2022-12-18T20:20:52.004Z,45.52
2022-12-18T20:23:56.537Z,45.32
2022-12-18T20:26:58.989Z,45.02
2022-12-18T20:30:01.526Z,44.85
2022-12-18T20:33:04.204Z,44.61
2022-12-18T20:36:12.826Z,44.35
2022-12-18T20:39:16.709Z,44.59
2022-12-18T20:42:19.386Z,44.36
2022-12-18T20:45:22.434Z,44.32
2022-12-18T20:48:26.741Z,44.28
2022-12-18T20:51:31.097Z,44.39
2022-12-18T20:54:33.651Z,44.40
2022-12-18T20:57:36.051Z,44.65
2022-12-18T21:00:41.307Z,44.74
2022-12-18T21:03:47.360Z,44.86
2022-12-18T21:06:59.187Z,44.93
2022-12-18T21:10:05.532Z,45.01
2022-12-18T21:13:08.931Z,44.99
2022-12-18T21:16:13.389Z,44.97
2022-12-18T21:19:19.146Z,45.02
2022-12-18T21:22:21.829Z,45.01
2022-12-18T21:25:24.420Z,45.12
2022-12-18T21:28:28.100Z,45.21
2022-12-18T21:31:36.563Z,45.14
2022-12-18T21:34:41.169Z,45.19
2022-12-18T21:37:46.389Z,45.46
2022-12-18T21:40:48.490Z,44.84
2022-12-18T21:44:06.625Z,44.77
2022-12-18T21:47:21.784Z,44.79
2022-12-18T21:50:26.428Z,44.91
2022-12-18T21:53:29.168Z,45.09
2022-12-18T21:56:46.840Z,44.52
2022-12-18T21:59:50.044Z,44.36
2022-12-18T22:03:03.426Z,44.67
2022-12-18T22:06:14.933Z,44.44
2022-12-18T22:09:20.060Z,44.25
2022-12-18T22:12:41.601Z,43.88
2022-12-18T22:15:47.050Z,43.86
2022-12-18T22:18:49.278Z,44.02
2022-12-18T22:21:51.960Z,43.88
2022-12-18T22:24:54.020Z,43.78
2022-12-18T22:28:15.006Z,43.68
2022-12-18T22:31:18.838Z,43.47
2022-12-18T22:34:23.374Z,43.33
2022-12-18T22:37:26.472Z,43.47
2022-12-18T22:40:29.851Z,43.31
2022-12-18T22:43:34.063Z,43.42
2022-12-18T22:46:42.659Z,43.29
2022-12-18T22:49:45.318Z,43.26
2022-12-18T22:52:47.775Z,43.07
2022-12-18T22:55:50.293Z,43.15
2022-12-18T22:58:54.122Z,43.17
2022-12-18T23:01:59.174Z,42.99
2022-12-18T23:05:01.939Z,42.81
2022-12-18T23:08:04.111Z,42.69
2022-12-18T23:11:07.492Z,42.58
2022-12-18T23:14:09.551Z,42.55
2022-12-18T23:17:12.295Z,42.65
2022-12-18T23:20:14.510Z,42.77
2022-12-18T23:23:18.302Z,42.63
2022-12-18T23:26:23.192Z,42.57
2022-12-18T23:29:26.052Z,42.57
2022-12-18T23:32:28.536Z,42.62
2022-12-18T23:35:30.922Z,42.63
2022-12-18T23:38:34.515Z,42.60
2022-12-18T23:41:37.018Z,42.56
2022-12-18T23:44:39.279Z,42.47
2022-12-18T23:47:41.854Z,42.55
2022-12-18T23:50:43.800Z,42.33
2022-12-18T23:53:46.720Z,42.43
2022-12-18T23:56:48.699Z,42.60
2022-12-18T23:59:53.269Z,42.53
